METAR AND TAF INFORMATION
METAR FOR FNUB
ADDS - METARS form results

(2230 UTC 21 August 2019)
Data provider http://aviationweather.gov/metar/data/
 
Forecast for: FNUB (LUBANGO , AO)
Text: TAF FNUB 211045Z 2114/2124 12010KT CAVOK
Forecast period: 1400 to 2000 UTC 21 August 2019
Forecast type: FROM: standard forecast or significant change
Winds: from the ESE (120 degrees) at 12 MPH (10 knots; 5.1 m/s)
Visibility: 6 or more miles 10+ km)
Ceiling: unknown
Clouds: missing
Weather: NSW  (no significant weather)
Text: BECMG 2120/2122 27005KT 8000 SCT020
Forecast period: 2000 UTC 21 August 2019 to 0000 UTC 22 August 2019
Forecast type: BECOMING: Conditions expected to become as follows by 2200 UTC 21 August 2019
Winds: from the W (270 degrees) at 6 MPH (5 knots; 2.6 m/s)
Visibility: 5 miles (8 km)
Ceiling: at least 12,000 feet AGL
Clouds: scattered clouds at 2000 feet AGL
Weather: NSW  (no significant weather)

 AIRPORT MAP

 RUNWAY INFORMATION
Runway 10 Runway length 9570 ft Runway width 148 ft
Runway elevation 5851 ft Runway displaced threshold 0 ft Runway heading 87
Runway 28 Runway length 9570 ft Runway width 148 ft
Runway elevation 5774 ft Runway displaced threshold 0 ft Runway heading 267

 AIRPORT FREQUENCIES
Type AFIS Name AFIS Frequency 118.9 MHZ

 AIRPORT NEAR NAVIGATION AIDS
Type NDB Name Lubango Frequency 335 KHZ
Type VOR-DME Name Lubango Frequency 112300 KHZ



Powered by Virtual Airlines Manager [[v2.6.2]]